Time;durP1;ratioP1;P1;durP2;ratioP2;P2;SDS_P1;SDS_P2;PMS_P1;PMS_P2;Temp;Humidity;BMP_temperature;BMP_pressure;BME280_temperature;BME280_humidity;BME280_pressure;Samples;Min_cycle;Max_cycle;Signal;HPM_P1;HPM_P2
2023/05/27 12:54:21;;;;;;;34.20;31.60;;;23.80;47.50;;;;;;5067290;27;20979;-71
2023/05/27 12:56:49;;;;;;;32.57;29.97;;;24.00;47.10;;;;;;5062786;28;20477;-72
2023/05/27 12:59:16;;;;;;;37.63;35.13;;;24.40;46.30;;;;;;5052588;28;20553;-73
2023/05/27 13:01:43;;;;;;;39.47;36.90;;;24.70;45.40;;;;;;5055808;28;20551;-71
2023/05/27 13:04:10;;;;;;;36.87;34.37;;;24.80;45.80;;;;;;5061132;28;20458;-72
2023/05/27 13:06:37;;;;;;;33.90;31.43;;;24.90;45.90;;;;;;5062678;28;20520;-71
2023/05/27 13:09:05;;;;;;;35.77;33.17;;;25.00;45.30;;;;;;5050755;28;20451;-69
2023/05/27 13:11:35;;;;;;;38.73;35.33;;;24.80;45.10;;;;;;5058337;28;20988;-71
2023/05/27 13:14:02;;;;;;;34.70;32.10;;;24.90;45.60;;;;;;5053598;28;20482;-70
2023/05/27 13:16:30;;;;;;;36.23;33.70;;;24.90;45.40;;;;;;5054236;28;20801;-69
2023/05/27 13:18:56;;;;;;;35.10;32.30;;;25.00;45.50;;;;;;5057594;28;20474;-70
2023/05/27 13:21:23;;;;;;;35.70;32.77;;;25.30;45.00;;;;;;5053726;28;20833;-69
2023/05/27 13:23:50;;;;;;;36.00;33.17;;;25.60;44.80;;;;;;5054326;28;20469;-72
2023/05/27 13:26:17;;;;;;;35.00;32.40;;;25.50;44.00;;;;;;5055234;28;20494;-69
2023/05/27 13:28:45;;;;;;;35.53;32.67;;;25.50;43.50;;;;;;5053823;28;20462;-69
2023/05/27 13:31:12;;;;;;;36.13;33.27;;;25.20;43.40;;;;;;5055227;28;20468;-69
2023/05/27 13:33:42;;;;;;;34.80;32.30;;;25.20;43.10;;;;;;5054206;28;20484;-69
2023/05/27 13:36:09;;;;;;;34.80;32.10;;;25.20;43.10;;;;;;5056432;28;20478;-70
2023/05/27 13:38:35;;;;;;;32.97;30.50;;;25.40;42.90;;;;;;5055838;28;20454;-69
2023/05/27 13:41:02;;;;;;;38.40;35.53;;;25.40;43.30;;;;;;5052421;28;20458;-73
2023/05/27 13:43:29;;;;;;;33.87;31.37;;;25.20;43.90;;;;;;5053685;28;20457;-75
2023/05/27 13:45:58;;;;;;;36.07;33.20;;;25.40;44.10;;;;;;5050144;28;20485;-72
2023/05/27 13:48:25;;;;;;;35.50;32.77;;;25.30;44.00;;;;;;5054508;28;20488;-73
2023/05/27 13:50:52;;;;;;;34.83;31.47;;;25.30;43.90;;;;;;5051433;28;20832;-72
2023/05/27 13:53:18;;;;;;;40.30;37.90;;;25.20;44.30;;;;;;5054915;28;20482;-74
2023/05/27 13:55:45;;;;;;;32.83;30.40;;;25.00;44.90;;;;;;5054817;28;20983;-72
2023/05/27 13:58:12;;;;;;;33.77;31.07;;;25.30;44.60;;;;;;5053406;28;20472;-73
2023/05/27 14:00:39;;;;;;;35.60;33.17;;;25.50;43.80;;;;;;5058346;28;20454;-71
2023/05/27 14:03:08;;;;;;;34.63;32.10;;;25.40;43.60;;;;;;5057497;28;20447;-74
2023/05/27 14:05:35;;;;;;;34.13;31.63;;;25.50;43.20;;;;;;5046704;28;20478;-72
2023/05/27 14:08:03;;;;;;;34.33;31.57;;;25.70;42.50;;;;;;5044962;28;20473;-71
2023/05/27 14:10:30;;;;;;;33.10;30.67;;;25.90;42.40;;;;;;5045499;28;20556;-73
2023/05/27 14:12:57;;;;;;;33.10;30.80;;;25.70;42.80;;;;;;5046881;28;20475;-72
2023/05/27 14:15:27;;;;;;;32.90;30.20;;;25.40;42.90;;;;;;5041686;28;20483;-69
2023/05/27 14:17:56;;;;;;;34.40;32.00;;;25.30;43.10;;;;;;5041384;28;20451;-70
2023/05/27 14:20:24;;;;;;;32.53;30.10;;;25.30;43.30;;;;;;5043074;28;20467;-69
2023/05/27 14:22:51;;;;;;;35.30;32.53;;;25.40;43.50;;;;;;5050482;28;20478;-69
2023/05/27 14:25:20;;;;;;;33.33;30.93;;;25.60;41.50;;;;;;5048482;28;20483;-69
2023/05/27 14:27:47;;;;;;;32.83;30.27;;;25.30;41.90;;;;;;5052447;28;20451;-70
2023/05/27 14:30:15;;;;;;;34.53;32.33;;;25.40;41.90;;;;;;5052012;28;20451;-69
2023/05/27 14:32:42;;;;;;;31.60;29.30;;;25.80;41.50;;;;;;5043635;28;20543;-69
2023/05/27 14:35:10;;;;;;;35.43;32.43;;;26.00;39.90;;;;;;5049555;28;20478;-69
2023/05/27 14:37:38;;;;;;;32.33;29.93;;;25.90;40.10;;;;;;5045102;28;20815;-71
2023/05/27 14:40:07;;;;;;;32.40;30.00;;;26.00;39.30;;;;;;5048703;28;20550;-72
2023/05/27 14:42:34;;;;;;;34.13;31.50;;;26.10;39.10;;;;;;5041119;28;20499;-75
2023/05/27 14:45:01;;;;;;;35.33;32.93;;;26.10;39.60;;;;;;5042763;28;20987;-72
2023/05/27 14:47:28;;;;;;;34.57;32.07;;;26.30;38.80;;;;;;5040612;28;20451;-71
2023/05/27 14:49:55;;;;;;;31.70;29.60;;;26.20;37.30;;;;;;5037124;28;20459;-73
2023/05/27 14:52:22;;;;;;;32.17;30.07;;;26.50;37.80;;;;;;5036148;28;21075;-73
2023/05/27 14:54:51;;;;;;;34.20;31.90;;;26.80;37.00;;;;;;5038633;28;20479;-72
2023/05/27 14:57:18;;;;;;;32.50;30.20;;;26.70;36.90;;;;;;5040243;28;21316;-73
2023/05/27 14:59:45;;;;;;;31.00;29.00;;;26.60;35.60;;;;;;5041073;28;22171;-71
2023/05/27 15:02:12;;;;;;;30.93;28.73;;;26.70;35.90;;;;;;5039069;28;20463;-73
2023/05/27 15:04:38;;;;;;;32.73;30.10;;;26.90;34.50;;;;;;5038083;28;20849;-72
2023/05/27 15:07:07;;;;;;;31.50;29.30;;;26.80;34.50;;;;;;5037342;28;20462;-74
2023/05/27 15:09:34;;;;;;;32.03;29.70;;;26.50;33.70;;;;;;5037732;28;20458;-71
2023/05/27 15:12:02;;;;;;;32.50;30.13;;;26.50;33.60;;;;;;5037907;28;20463;-73
2023/05/27 15:14:29;;;;;;;32.30;30.10;;;26.30;34.50;;;;;;5038435;28;20478;-69
2023/05/27 15:16:56;;;;;;;31.47;29.20;;;26.50;33.40;;;;;;5037679;28;20521;-69
2023/05/27 15:19:23;;;;;;;31.73;29.37;;;26.60;33.80;;;;;;5041126;28;20939;-69
2023/05/27 15:21:50;;;;;;;31.93;29.83;;;26.80;34.30;;;;;;5038187;28;20473;-69
2023/05/27 15:24:16;;;;;;;30.73;28.53;;;27.20;34.50;;;;;;5040554;28;20485;-69
2023/05/27 15:26:43;;;;;;;32.40;30.30;;;27.50;34.20;;;;;;5045487;28;20933;-69
2023/05/27 15:29:11;;;;;;;33.13;30.83;;;27.40;33.70;;;;;;5037924;28;21213;-69
2023/05/27 15:31:38;;;;;;;32.43;30.33;;;27.20;34.90;;;;;;5036857;28;20466;-69
2023/05/27 15:34:05;;;;;;;32.20;30.00;;;27.20;33.60;;;;;;5042119;28;20470;-70
2023/05/27 15:36:32;;;;;;;31.50;29.30;;;27.50;33.20;;;;;;5036964;28;21139;-70
2023/05/27 15:38:59;;;;;;;33.43;31.33;;;27.40;33.50;;;;;;5039450;28;20554;-69
2023/05/27 15:41:26;;;;;;;32.50;30.20;;;27.50;33.00;;;;;;5035090;28;20490;-69
2023/05/27 15:43:53;;;;;;;33.53;31.33;;;27.40;33.50;;;;;;5031847;28;21582;-69
2023/05/27 15:46:22;;;;;;;36.67;33.90;;;27.30;34.50;;;;;;5037588;28;20456;-69
2023/05/27 15:48:49;;;;;;;33.37;31.17;;;27.30;35.00;;;;;;5032057;28;20479;-69
2023/05/27 15:51:16;;;;;;;31.03;28.83;;;27.70;34.00;;;;;;5036058;28;20451;-69
2023/05/27 15:53:42;;;;;;;32.70;30.30;;;27.60;33.90;;;;;;5038086;28;20471;-69
2023/05/27 15:56:09;;;;;;;34.00;31.33;;;27.90;33.40;;;;;;5036057;28;20475;-69
2023/05/27 15:58:38;;;;;;;31.80;29.70;;;27.80;33.10;;;;;;5035461;28;20467;-68
2023/05/27 16:01:06;;;;;;;32.80;30.57;;;28.10;32.50;;;;;;5037615;28;20462;-69
2023/05/27 16:03:34;;;;;;;32.13;30.03;;;28.10;32.90;;;;;;5044881;28;20949;-69
2023/05/27 16:06:05;;;;;;;32.07;30.03;;;28.00;32.60;;;;;;5036938;28;20487;-69
2023/05/27 16:08:32;;;;;;;31.70;29.50;;;27.80;31.90;;;;;;5040022;28;20458;-68
2023/05/27 16:10:59;;;;;;;32.77;30.37;;;27.90;32.00;;;;;;5039411;28;20473;-69
2023/05/27 16:13:26;;;;;;;34.37;32.13;;;27.80;32.70;;;;;;5043300;28;20560;-69
2023/05/27 16:15:53;;;;;;;35.03;32.37;;;27.90;33.30;;;;;;5046121;28;20467;-69
2023/05/27 16:18:20;;;;;;;34.13;31.77;;;28.20;32.90;;;;;;5044228;28;20456;-69
2023/05/27 16:20:50;;;;;;;33.80;31.50;;;29.00;32.30;;;;;;5039639;28;20455;-69
2023/05/27 16:23:17;;;;;;;33.53;31.30;;;29.60;31.30;;;;;;5045334;28;20485;-70
2023/05/27 16:25:44;;;;;;;34.90;32.70;;;30.90;31.00;;;;;;5046748;28;20470;-70
2023/05/27 16:28:11;;;;;;;32.67;30.60;;;32.80;30.50;;;;;;5048029;28;20956;-69
2023/05/27 16:30:38;;;;;;;34.53;32.17;;;34.50;28.40;;;;;;5042946;28;20452;-69
2023/05/27 16:33:04;;;;;;;35.23;32.93;;;35.30;27.40;;;;;;5043003;28;20459;-70
2023/05/27 16:35:31;;;;;;;33.40;31.40;;;36.20;26.30;;;;;;5041150;28;20491;-69
2023/05/27 16:37:59;;;;;;;32.27;30.27;;;37.20;25.30;;;;;;5047746;28;20462;-70
2023/05/27 16:40:26;;;;;;;33.60;31.60;;;36.30;25.50;;;;;;5042319;28;20546;-69
2023/05/27 16:42:53;;;;;;;33.47;31.37;;;36.10;25.90;;;;;;5042939;28;20455;-70
2023/05/27 16:45:20;;;;;;;34.13;32.03;;;36.90;25.30;;;;;;5041317;28;20467;-69
2023/05/27 16:47:47;;;;;;;34.27;32.17;;;37.10;24.90;;;;;;5045676;28;20459;-70
2023/05/27 16:50:14;;;;;;;33.37;31.17;;;36.90;25.00;;;;;;5044812;28;20813;-69
2023/05/27 16:52:41;;;;;;;33.43;31.30;;;36.00;25.80;;;;;;5042721;28;20469;-69
2023/05/27 16:55:10;;;;;;;33.90;31.50;;;36.30;25.70;;;;;;5042054;28;20490;-69
2023/05/27 16:57:36;;;;;;;33.23;30.70;;;36.50;25.40;;;;;;5041952;28;20483;-70
2023/05/27 17:00:07;;;;;;;33.70;31.43;;;36.60;25.20;;;;;;5043873;28;20477;-69
2023/05/27 17:02:34;;;;;;;30.53;28.63;;;36.10;25.70;;;;;;5041181;28;20874;-71
2023/05/27 17:05:02;;;;;;;32.20;30.00;;;36.70;26.20;;;;;;5037763;28;20559;-75
2023/05/27 17:07:28;;;;;;;31.87;29.77;;;37.90;24.70;;;;;;5038435;28;20467;-72
2023/05/27 17:09:55;;;;;;;32.20;30.20;;;38.10;24.20;;;;;;5035807;28;20466;-73
2023/05/27 17:12:23;;;;;;;32.53;30.53;;;38.30;24.60;;;;;;5036910;28;20525;-73
2023/05/27 17:14:51;;;;;;;31.80;29.70;;;38.70;24.20;;;;;;5039839;28;20478;-72
2023/05/27 17:17:18;;;;;;;32.80;30.33;;;37.90;24.30;;;;;;5035860;28;21040;-73
2023/05/27 17:19:46;;;;;;;31.67;29.50;;;37.50;25.10;;;;;;5036687;28;20451;-72
2023/05/27 17:22:13;;;;;;;31.33;29.13;;;37.90;24.60;;;;;;5040149;28;20460;-73
2023/05/27 17:24:40;;;;;;;32.80;30.70;;;38.20;24.90;;;;;;5044689;28;20475;-74
2023/05/27 17:27:09;;;;;;;31.70;29.60;;;38.30;24.60;;;;;;5043761;28;20490;-72
2023/05/27 17:29:38;;;;;;;31.10;28.97;;;38.80;24.40;;;;;;5040187;28;20455;-72
2023/05/27 17:32:05;;;;;;;30.27;28.17;;;38.40;23.90;;;;;;5043597;28;20447;-72
2023/05/27 17:34:32;;;;;;;32.47;30.17;;;37.70;24.90;;;;;;5040945;28;20964;-72
2023/05/27 17:36:59;;;;;;;30.87;28.77;;;36.50;25.00;;;;;;5043639;28;20459;-72
2023/05/27 17:39:26;;;;;;;32.13;29.93;;;35.90;25.50;;;;;;5041083;28;20498;-74
2023/05/27 17:41:53;;;;;;;31.70;29.57;;;35.60;25.70;;;;;;5050589;28;20542;-73
2023/05/27 17:44:20;;;;;;;31.43;29.43;;;34.70;26.80;;;;;;5040089;28;20494;-72
2023/05/27 17:46:53;;;;;;;31.40;29.30;;;34.50;27.20;;;;;;5045035;28;20464;-74
2023/05/27 17:49:20;;;;;;;33.60;31.40;;;34.60;27.00;;;;;;5045446;28;20832;-72
2023/05/27 17:51:47;;;;;;;32.90;30.50;;;35.40;26.90;;;;;;5045649;28;20462;-73
2023/05/27 17:54:14;;;;;;;31.00;29.00;;;35.80;26.30;;;;;;5044222;28;20474;-75
2023/05/27 17:56:41;;;;;;;29.90;27.90;;;34.60;27.20;;;;;;5042375;28;20458;-71
2023/05/27 17:59:10;;;;;;;31.73;29.43;;;34.40;27.20;;;;;;5036995;28;20813;-73
2023/05/27 18:01:38;;;;;;;32.57;30.40;;;34.40;27.50;;;;;;5046123;28;20542;-75
2023/05/27 18:04:06;;;;;;;29.63;27.70;;;34.60;27.10;;;;;;5047696;28;20543;-71
2023/05/27 18:06:36;;;;;;;30.70;28.60;;;34.60;27.20;;;;;;5048978;28;20542;-73
2023/05/27 18:09:05;;;;;;;32.10;30.10;;;34.80;27.30;;;;;;5048623;28;20561;-72
2023/05/27 18:11:32;;;;;;;30.23;28.13;;;34.90;26.90;;;;;;5049142;28;20489;-73
2023/05/27 18:13:59;;;;;;;32.23;30.03;;;34.60;27.00;;;;;;5040089;28;20479;-71
2023/05/27 18:16:26;;;;;;;34.27;31.67;;;34.20;27.40;;;;;;5040669;28;20459;-74
2023/05/27 18:18:53;;;;;;;31.87;29.77;;;34.20;27.50;;;;;;5049486;28;20821;-72
2023/05/27 18:21:22;;;;;;;31.90;29.60;;;34.00;27.90;;;;;;5050186;28;20447;-72
2023/05/27 18:23:49;;;;;;;30.60;28.60;;;33.30;28.30;;;;;;5048297;28;20459;-72
2023/05/27 18:26:16;;;;;;;32.47;30.20;;;32.40;29.30;;;;;;5045310;28;21184;-72
2023/05/27 18:28:43;;;;;;;30.40;28.37;;;31.90;29.90;;;;;;5045585;28;20472;-71
2023/05/27 18:31:10;;;;;;;29.70;27.30;;;31.60;30.50;;;;;;5039941;28;20463;-71
2023/05/27 18:33:37;;;;;;;28.63;26.73;;;31.10;31.20;;;;;;5042736;28;20837;-73
2023/05/27 18:36:04;;;;;;;29.30;27.30;;;30.90;31.90;;;;;;5041031;28;21070;-71
2023/05/27 18:38:34;;;;;;;31.03;28.77;;;30.30;32.40;;;;;;5042215;28;20514;-71
2023/05/27 18:41:01;;;;;;;31.10;29.07;;;29.80;33.00;;;;;;5038402;28;20466;-74
2023/05/27 18:43:28;;;;;;;32.17;29.90;;;29.10;33.90;;;;;;5038403;28;20493;-71
2023/05/27 18:45:56;;;;;;;31.43;29.10;;;28.50;34.80;;;;;;5039670;28;20467;-71
2023/05/27 18:48:24;;;;;;;31.87;29.73;;;27.90;35.80;;;;;;5040238;28;20548;-68
2023/05/27 18:50:53;;;;;;;31.60;29.30;;;27.20;36.90;;;;;;5037299;28;20467;-68
2023/05/27 18:53:20;;;;;;;35.77;33.63;;;26.70;37.60;;;;;;5040320;28;20462;-68
2023/05/27 18:55:48;;;;;;;35.03;32.50;;;26.20;38.60;;;;;;5035804;28;20479;-71
2023/05/27 18:58:16;;;;;;;29.70;27.80;;;25.60;39.70;;;;;;5039725;28;20468;-70
2023/05/27 19:00:43;;;;;;;51.00;30.17;;;25.20;40.50;;;;;;5037201;28;20477;-73
2023/05/27 19:03:11;;;;;;;30.83;28.27;;;25.00;40.80;;;;;;5039181;28;20467;-70
2023/05/27 19:05:38;;;;;;;30.17;27.67;;;24.60;41.60;;;;;;5044901;28;20514;-72
2023/05/27 19:08:05;;;;;;;29.57;27.47;;;24.30;42.10;;;;;;5041086;28;20462;-68
2023/05/27 19:10:32;;;;;;;30.27;27.63;;;24.10;42.40;;;;;;5039397;28;20467;-67
2023/05/27 19:13:00;;;;;;;29.87;27.77;;;23.90;42.70;;;;;;5044297;28;20466;-67
2023/05/27 19:15:27;;;;;;;35.47;32.73;;;23.80;42.90;;;;;;5044430;28;20480;-67
2023/05/27 19:17:54;;;;;;;31.90;29.60;;;23.60;43.40;;;;;;5045337;28;20458;-69
2023/05/27 19:20:21;;;;;;;31.97;29.60;;;23.30;43.50;;;;;;5042819;28;20454;-68
2023/05/27 19:22:48;;;;;;;30.30;28.07;;;23.20;43.80;;;;;;5043255;28;20466;-67
2023/05/27 19:25:15;;;;;;;29.03;27.10;;;23.00;44.00;;;;;;5036422;28;20463;-67
2023/05/27 19:27:42;;;;;;;29.80;27.90;;;22.80;44.10;;;;;;5040220;28;20463;-67
2023/05/27 19:30:12;;;;;;;31.70;29.10;;;22.70;44.50;;;;;;5042384;28;20463;-68
2023/05/27 19:32:39;;;;;;;32.20;29.90;;;22.40;45.40;;;;;;5033496;28;20578;-67
2023/05/27 19:35:06;;;;;;;30.60;28.60;;;22.30;46.50;;;;;;5039501;28;20486;-67
2023/05/27 19:37:33;;;;;;;29.60;27.30;;;22.10;47.40;;;;;;5037282;28;20870;-68
2023/05/27 19:40:00;;;;;;;30.80;28.50;;;22.00;48.00;;;;;;5036046;28;20475;-67
2023/05/27 19:42:27;;;;;;;30.30;28.30;;;21.80;48.60;;;;;;5037068;28;20579;-68
2023/05/27 19:44:54;;;;;;;30.00;27.80;;;21.70;49.10;;;;;;5039206;28;20474;-68
2023/05/27 19:47:23;;;;;;;30.47;28.30;;;21.60;49.50;;;;;;5039501;28;20933;-68
2023/05/27 19:49:49;;;;;;;30.23;28.17;;;21.40;49.90;;;;;;5038936;28;20455;-67
2023/05/27 19:52:22;;;;;;;28.73;26.87;;;21.30;50.20;;;;;;5044383;28;20550;-67
2023/05/27 19:54:52;;;;;;;30.77;28.43;;;21.20;50.40;;;;;;5036409;28;21284;-69
2023/05/27 19:57:19;;;;;;;30.20;27.90;;;21.10;50.80;;;;;;5043275;28;20546;-68
2023/05/27 19:59:48;;;;;;;29.90;27.63;;;20.90;51.20;;;;;;5044352;28;20549;-68
2023/05/27 20:02:17;;;;;;;30.60;28.50;;;20.80;51.80;;;;;;5045917;28;20878;-68
2023/05/27 20:04:47;;;;;;;30.37;28.13;;;20.70;52.10;;;;;;5047304;28;20683;-68
2023/05/27 20:07:14;;;;;;;31.13;29.03;;;20.60;52.20;;;;;;5044084;28;20525;-68
2023/05/27 20:09:43;;;;;;;30.60;28.60;;;20.50;52.70;;;;;;5040856;28;20542;-68
2023/05/27 20:12:11;;;;;;;30.50;28.50;;;20.30;53.20;;;;;;5046606;28;20856;-68
2023/05/27 20:14:38;;;;;;;31.20;28.90;;;20.20;53.50;;;;;;5044817;28;20984;-68
2023/05/27 20:17:06;;;;;;;31.47;29.37;;;20.10;54.10;;;;;;5044483;28;20466;-69
2023/05/27 20:19:33;;;;;;;30.83;28.50;;;19.90;54.60;;;;;;5046573;28;20466;-69
2023/05/27 20:22:01;;;;;;;30.10;27.83;;;19.90;55.60;;;;;;5046796;28;20456;-68
2023/05/27 20:24:28;;;;;;;29.80;27.77;;;19.80;56.10;;;;;;5044355;28;20479;-68
2023/05/27 20:26:55;;;;;;;31.80;29.30;;;19.70;55.80;;;;;;5040901;28;21002;-68
2023/05/27 20:29:22;;;;;;;31.07;28.70;;;19.70;55.70;;;;;;5039085;28;20451;-68
2023/05/27 20:31:49;;;;;;;31.57;29.00;;;19.60;55.90;;;;;;5037884;28;20542;-69
2023/05/27 20:34:16;;;;;;;29.70;27.73;;;19.40;56.40;;;;;;5040722;28;20477;-68
2023/05/27 20:36:42;;;;;;;31.53;29.43;;;19.40;56.80;;;;;;5042088;28;20486;-68
2023/05/27 20:39:11;;;;;;;31.23;29.03;;;19.30;57.10;;;;;;5045584;28;20825;-69
2023/05/27 20:41:38;;;;;;;31.77;29.47;;;19.20;57.40;;;;;;5039703;28;20455;-68
2023/05/27 20:44:05;;;;;;;31.33;29.03;;;19.00;57.90;;;;;;5042683;28;20490;-68
2023/05/27 20:46:31;;;;;;;31.70;29.37;;;19.00;58.80;;;;;;5040621;28;20868;-69
2023/05/27 20:48:59;;;;;;;31.37;29.20;;;18.80;58.70;;;;;;5047451;28;20534;-68
2023/05/27 20:51:27;;;;;;;30.10;28.10;;;18.90;58.60;;;;;;5046335;28;20498;-68
2023/05/27 20:53:55;;;;;;;31.00;28.80;;;18.70;58.60;;;;;;5043072;28;21016;-71
2023/05/27 20:56:27;;;;;;;32.10;29.60;;;18.60;59.40;;;;;;5041759;28;20929;-72
2023/05/27 20:58:54;;;;;;;32.53;29.87;;;18.60;59.50;;;;;;5045662;28;20467;-71
2023/05/27 21:01:21;;;;;;;30.23;28.10;;;18.50;59.70;;;;;;5041342;28;20454;-72
2023/05/27 21:03:49;;;;;;;31.33;29.30;;;18.40;60.00;;;;;;5044894;28;20455;-72
2023/05/27 21:06:15;;;;;;;28.83;27.03;;;18.30;60.40;;;;;;5045622;28;20490;-70
2023/05/27 21:08:42;;;;;;;31.30;29.03;;;18.20;60.50;;;;;;5037516;28;20458;-73
2023/05/27 21:11:09;;;;;;;30.73;28.73;;;18.20;60.70;;;;;;5038431;28;20459;-71
2023/05/27 21:13:38;;;;;;;31.10;28.97;;;18.10;60.80;;;;;;5039417;28;20447;-71
2023/05/27 21:16:05;;;;;;;31.60;29.53;;;18.10;61.10;;;;;;5038151;28;20483;-70
2023/05/27 21:18:32;;;;;;;29.90;28.03;;;18.00;61.10;;;;;;5037444;28;20455;-72
2023/05/27 21:20:58;;;;;;;31.60;29.33;;;18.00;61.20;;;;;;5040519;28;20466;-74
2023/05/27 21:23:29;;;;;;;30.77;28.67;;;18.00;61.40;;;;;;5041440;28;20972;-73
2023/05/27 21:25:57;;;;;;;32.13;29.63;;;17.80;61.90;;;;;;5041615;28;20482;-71
2023/05/27 21:28:24;;;;;;;30.50;28.10;;;17.70;62.30;;;;;;5046894;28;20493;-71
2023/05/27 21:30:52;;;;;;;32.37;29.80;;;17.70;62.60;;;;;;5038609;28;20446;-70
2023/05/27 21:33:20;;;;;;;31.57;29.47;;;17.60;62.70;;;;;;5041871;28;20451;-70
2023/05/27 21:35:47;;;;;;;31.43;29.13;;;17.60;62.90;;;;;;5040766;28;20587;-71
2023/05/27 21:38:16;;;;;;;30.27;28.17;;;17.50;63.00;;;;;;5046030;28;20462;-71
2023/05/27 21:40:43;;;;;;;31.43;29.40;;;17.50;63.10;;;;;;5040568;28;20454;-72
2023/05/27 21:43:10;;;;;;;31.63;29.27;;;17.40;63.70;;;;;;5041876;28;20486;-72
2023/05/27 21:45:40;;;;;;;30.77;28.73;;;17.30;64.00;;;;;;5039547;28;20471;-74
2023/05/27 21:48:08;;;;;;;30.10;28.10;;;17.20;64.30;;;;;;5046549;28;20457;-71
2023/05/27 21:50:35;;;;;;;29.90;28.00;;;17.20;64.30;;;;;;5045931;28;20462;-74
2023/05/27 21:53:03;;;;;;;30.27;28.00;;;17.20;64.20;;;;;;5049951;28;20478;-71
2023/05/27 21:55:30;;;;;;;28.83;26.73;;;17.00;64.60;;;;;;5047788;28;20472;-71
2023/05/27 21:57:57;;;;;;;30.43;27.93;;;17.00;64.80;;;;;;5048542;28;20447;-71
2023/05/27 22:00:24;;;;;;;28.80;26.57;;;17.00;64.80;;;;;;5035048;28;20462;-71
2023/05/27 22:02:51;;;;;;;28.40;26.40;;;16.90;65.00;;;;;;5040335;28;20527;-72
2023/05/27 22:05:19;;;;;;;28.43;26.53;;;16.90;65.00;;;;;;5044585;28;21062;-73
2023/05/27 22:07:46;;;;;;;29.47;27.50;;;16.80;65.30;;;;;;5049835;28;20463;-74
2023/05/27 22:10:13;;;;;;;29.60;27.50;;;16.70;65.50;;;;;;5049580;28;20451;-75
2023/05/27 22:12:40;;;;;;;30.10;27.70;;;16.60;65.90;;;;;;5049937;28;20451;-73
2023/05/27 22:15:08;;;;;;;28.47;26.63;;;16.60;66.00;;;;;;5049494;28;20508;-73
2023/05/27 22:17:35;;;;;;;29.30;27.13;;;16.60;66.30;;;;;;5048103;28;20548;-70
2023/05/27 22:20:01;;;;;;;29.00;26.97;;;16.50;66.40;;;;;;5048961;28;20539;-71
2023/05/27 22:22:30;;;;;;;29.20;26.83;;;16.40;66.80;;;;;;5050439;28;20447;-72
2023/05/27 22:24:56;;;;;;;29.07;26.97;;;16.30;67.00;;;;;;5048092;28;20487;-71
2023/05/27 22:27:23;;;;;;;30.67;28.33;;;16.20;67.10;;;;;;5043989;28;20463;-68
2023/05/27 22:29:50;;;;;;;29.43;27.33;;;16.20;67.30;;;;;;5042577;28;20517;-68
2023/05/27 22:32:17;;;;;;;29.27;27.00;;;16.20;67.30;;;;;;5037462;28;21645;-68
2023/05/27 22:34:44;;;;;;;28.37;26.43;;;16.10;67.70;;;;;;5039935;28;20574;-68
2023/05/27 22:37:11;;;;;;;29.23;26.93;;;16.10;67.80;;;;;;5041279;28;20478;-68
2023/05/27 22:39:39;;;;;;;27.90;25.90;;;16.10;67.90;;;;;;5043870;28;20457;-68
2023/05/27 22:42:07;;;;;;;28.90;26.90;;;16.00;68.30;;;;;;5042354;28;20442;-68
2023/05/27 22:44:34;;;;;;;29.53;27.50;;;15.90;68.40;;;;;;5041138;28;20474;-67
2023/05/27 22:47:01;;;;;;;30.30;27.93;;;15.90;68.60;;;;;;5039617;28;20832;-68
2023/05/27 22:49:28;;;;;;;28.80;26.90;;;15.90;68.70;;;;;;5042814;28;20508;-68
2023/05/27 22:51:55;;;;;;;29.73;27.83;;;15.80;69.00;;;;;;5046440;28;20459;-68
2023/05/27 22:54:22;;;;;;;31.30;28.80;;;15.90;68.80;;;;;;5038427;28;20490;-69
2023/05/27 22:56:50;;;;;;;30.80;28.43;;;15.80;68.90;;;;;;5040934;28;21334;-68
2023/05/27 22:59:17;;;;;;;29.60;27.60;;;15.90;68.90;;;;;;5045225;28;20474;-68
2023/05/27 23:01:44;;;;;;;30.10;27.70;;;15.80;69.00;;;;;;5045442;28;20463;-68
2023/05/27 23:04:11;;;;;;;30.20;28.00;;;15.70;69.80;;;;;;5036800;28;20464;-67
2023/05/27 23:06:39;;;;;;;30.70;28.40;;;15.60;69.80;;;;;;5044024;28;21211;-68
2023/05/27 23:09:06;;;;;;;31.00;28.70;;;15.50;70.10;;;;;;5040314;28;21133;-68
2023/05/27 23:11:32;;;;;;;30.47;28.20;;;15.50;70.40;;;;;;5038120;28;20459;-68
2023/05/27 23:14:01;;;;;;;30.70;28.60;;;15.50;70.30;;;;;;5039317;28;20513;-67
2023/05/27 23:16:27;;;;;;;30.10;28.00;;;15.50;70.20;;;;;;5041563;28;20482;-68
2023/05/27 23:18:54;;;;;;;29.93;27.67;;;15.40;70.70;;;;;;5040218;28;20503;-68
2023/05/27 23:21:21;;;;;;;30.00;27.80;;;15.30;71.00;;;;;;5047806;28;20462;-68
2023/05/27 23:23:48;;;;;;;29.63;27.70;;;15.20;71.00;;;;;;5047175;28;20466;-68
2023/05/27 23:26:15;;;;;;;30.33;28.00;;;15.20;71.20;;;;;;5043730;28;20471;-70
2023/05/27 23:28:42;;;;;;;30.37;28.33;;;15.20;71.20;;;;;;5042584;28;20466;-70
2023/05/27 23:31:10;;;;;;;29.73;27.73;;;15.20;71.20;;;;;;5041627;28;20459;-73
2023/05/27 23:33:37;;;;;;;30.60;28.30;;;15.20;71.20;;;;;;5041437;28;20582;-70
2023/05/27 23:36:06;;;;;;;30.10;28.20;;;15.10;71.50;;;;;;5034264;28;20494;-71
2023/05/27 23:38:33;;;;;;;30.00;28.10;;;15.00;71.90;;;;;;5038604;28;20466;-70
2023/05/27 23:40:59;;;;;;;29.30;27.27;;;15.00;71.60;;;;;;5039867;28;20470;-69
2023/05/27 23:43:27;;;;;;;29.13;27.17;;;14.90;72.10;;;;;;5038780;28;20458;-73
2023/05/27 23:45:54;;;;;;;29.87;27.63;;;14.90;72.30;;;;;;5038062;28;20474;-75
2023/05/27 23:48:23;;;;;;;30.47;28.10;;;14.90;72.40;;;;;;5044824;28;20474;-71
2023/05/27 23:50:50;;;;;;;29.03;26.93;;;15.00;72.10;;;;;;5040456;28;20459;-70
2023/05/27 23:53:17;;;;;;;32.93;30.33;;;14.90;72.40;;;;;;5040119;28;20463;-70
2023/05/27 23:55:46;;;;;;;30.43;28.13;;;14.80;72.90;;;;;;5043782;28;20475;-72
2023/05/27 23:58:13;;;;;;;31.13;28.83;;;14.70;73.10;;;;;;5048717;28;20455;-69
